createdAt,value
2018-04-14T00:01:27.615Z,0
2018-04-14T00:02:27.651Z,0
2018-04-14T00:03:27.661Z,0
2018-04-14T00:04:27.714Z,0
2018-04-14T00:05:27.717Z,0
2018-04-14T00:06:27.728Z,0
2018-04-14T00:07:42.404Z,0
2018-04-14T00:08:27.768Z,0
2018-04-14T00:09:27.531Z,0
2018-04-14T00:11:27.702Z,0
2018-04-14T00:12:27.921Z,0
2018-04-14T00:13:27.877Z,0
2018-04-14T00:14:27.384Z,0
2018-04-14T00:15:27.652Z,0
2018-04-14T00:16:27.954Z,0
2018-04-14T00:17:42.610Z,0
2018-04-14T00:18:42.375Z,0
2018-04-14T00:19:27.735Z,0
2018-04-14T00:20:28.023Z,0
2018-04-14T00:21:28.041Z,0
2018-04-14T00:22:42.481Z,0
2018-04-14T00:23:42.739Z,0
2018-04-14T00:24:27.873Z,0
2018-04-14T00:25:28.120Z,0
2018-04-14T00:26:42.799Z,0
2018-04-14T00:27:42.564Z,0
2018-04-14T00:28:27.926Z,0
2018-04-14T00:29:28.213Z,0
2018-04-14T00:30:27.969Z,0
2018-04-14T00:31:28.246Z,0
2018-04-14T00:32:28.266Z,0
2018-04-14T00:33:27.773Z,0
2018-04-14T00:34:42.969Z,0
2018-04-14T00:35:28.339Z,0
2018-04-14T00:36:28.355Z,0
2018-04-14T00:37:43.040Z,0
2018-04-14T00:39:27.640Z,0
2018-04-14T00:40:28.178Z,0
2018-04-14T00:41:43.117Z,0
2018-04-14T00:42:28.224Z,0
2018-04-14T00:43:57.832Z,0
2018-04-14T00:44:43.178Z,0
2018-04-14T00:45:28.544Z,0
2018-04-14T00:46:28.562Z,0
2018-04-14T00:47:42.724Z,0
2018-04-14T00:48:28.607Z,0
2018-04-14T00:49:28.627Z,0
2018-04-14T00:50:28.647Z,0
2018-04-14T00:51:28.407Z,0
2018-04-14T00:52:43.346Z,0
2018-04-14T00:53:43.371Z,0
2018-04-14T00:54:28.486Z,0
2018-04-14T00:55:28.752Z,0
2018-04-14T00:56:43.434Z,0
2018-04-14T00:57:28.274Z,0
2018-04-14T00:58:28.853Z,0
2018-04-14T00:59:58.154Z,0
2018-04-14T01:00:28.861Z,0
2018-04-14T01:01:28.879Z,0
2018-04-14T01:02:28.645Z,0
2018-04-14T01:03:28.916Z,0
2018-04-14T01:04:28.948Z,0
2018-04-14T01:05:28.702Z,0
2018-04-14T01:06:28.980Z,0
2018-04-14T01:07:43.668Z,0
2018-04-14T01:08:29.023Z,0
2018-04-14T01:09:28.791Z,0
2018-04-14T01:10:28.808Z,0
2018-04-14T01:11:28.835Z,0
2018-04-14T01:12:29.121Z,0
2018-04-14T01:13:28.878Z,0
2018-04-14T01:14:29.159Z,0
2018-04-14T01:15:43.571Z,0
2018-04-14T01:16:29.196Z,0
2018-04-14T01:17:43.613Z,0
2018-04-14T01:18:29.237Z,0
2018-04-14T01:19:43.926Z,0
2018-04-14T01:20:43.674Z,0
2018-04-14T01:21:29.049Z,0
2018-04-14T01:22:29.065Z,0
2018-04-14T01:23:43.743Z,0
2018-04-14T01:24:29.110Z,0
2018-04-14T01:25:29.382Z,0
2018-04-14T01:26:29.401Z,0
2018-04-14T01:27:44.084Z,0
2018-04-14T01:28:43.849Z,0
2018-04-14T01:29:29.472Z,0
2018-04-14T01:30:44.144Z,0
2018-04-14T01:31:29.511Z,0
2018-04-14T01:32:44.266Z,0
2018-04-14T01:34:29.313Z,0
2018-04-14T01:35:29.336Z,0
2018-04-14T01:36:29.369Z,0
2018-04-14T01:37:29.635Z,0
2018-04-14T01:38:29.658Z,0
2018-04-14T01:39:44.340Z,0
2018-04-14T01:40:29.178Z,0
2018-04-14T01:41:29.725Z,0
2018-04-14T01:42:44.400Z,0
2018-04-14T01:43:29.756Z,0
2018-04-14T01:44:44.184Z,0
2018-04-14T01:45:29.805Z,0
2018-04-14T01:46:29.825Z,0
2018-04-14T01:48:29.627Z,0
2018-04-14T01:49:29.648Z,0
2018-04-14T01:50:29.910Z,0
2018-04-14T01:51:29.923Z,0
2018-04-14T01:52:29.687Z,0
2018-04-14T01:53:44.633Z,0
2018-04-14T01:54:29.483Z,0
2018-04-14T01:55:30.009Z,0
2018-04-14T01:56:30.031Z,0
2018-04-14T01:57:29.796Z,0
2018-04-14T01:58:29.815Z,0
2018-04-14T01:59:30.101Z,0
2018-04-14T02:00:30.115Z,0
2018-04-14T02:02:59.473Z,0
2018-04-14T02:04:29.677Z,0
2018-04-14T02:05:30.224Z,0
2018-04-14T02:06:30.239Z,0
2018-04-14T02:07:30.008Z,0
2018-04-14T02:08:29.766Z,0
2018-04-14T02:09:30.323Z,0
2018-04-14T02:10:30.328Z,0
2018-04-14T02:11:30.082Z,0
2018-04-14T02:12:30.102Z,0
2018-04-14T02:13:30.127Z,0
2018-04-14T02:14:29.627Z,0
2018-04-14T02:15:30.167Z,0
2018-04-14T02:16:30.188Z,0
2018-04-14T02:17:30.473Z,0
2018-04-14T02:18:59.807Z,0
2018-04-14T02:20:30.528Z,0
2018-04-14T02:22:44.967Z,0
2018-04-14T02:23:30.334Z,0
2018-04-14T02:24:30.352Z,0
2018-04-14T02:25:45.042Z,0
2018-04-14T02:26:30.657Z,0
2018-04-14T02:27:30.418Z,0
2018-04-14T02:28:45.093Z,0
2018-04-14T02:29:45.375Z,0
2018-04-14T02:30:45.413Z,0
2018-04-14T02:31:30.499Z,0
2018-04-14T02:32:30.525Z,0
2018-04-14T02:33:45.461Z,0
2018-04-14T02:35:00.135Z,0
2018-04-14T02:35:30.840Z,0
2018-04-14T02:36:30.609Z,0
2018-04-14T02:37:45.596Z,0
2018-04-14T02:38:30.656Z,0
2018-04-14T02:39:30.416Z,0
2018-04-14T02:40:30.951Z,0
2018-04-14T02:41:45.639Z,0
2018-04-14T02:42:31.002Z,0
2018-04-14T02:43:31.000Z,0
2018-04-14T02:44:30.777Z,0
2018-04-14T02:45:30.789Z,0
2018-04-14T02:46:31.070Z,0
2018-04-14T02:47:45.490Z,0
2018-04-14T02:48:31.114Z,0
2018-04-14T02:49:31.126Z,0
2018-04-14T02:51:00.473Z,0
2018-04-14T02:51:31.173Z,0
2018-04-14T02:52:31.206Z,0
2018-04-14T02:54:45.906Z,0
2018-04-14T02:55:31.250Z,0
2018-04-14T02:56:31.290Z,0
2018-04-14T02:57:31.299Z,0
2018-04-14T02:59:31.357Z,0
2018-04-14T03:00:31.370Z,0
2018-04-14T03:01:46.037Z,0
2018-04-14T03:03:30.897Z,0
2018-04-14T03:04:45.838Z,0
2018-04-14T03:05:46.123Z,0
2018-04-14T03:06:31.480Z,0
2018-04-14T03:09:31.281Z,0
2018-04-14T03:10:31.514Z,0
2018-04-14T03:11:31.590Z,0
2018-04-14T03:12:31.606Z,0
2018-04-14T03:13:31.623Z,0
2018-04-14T03:14:31.380Z,0
2018-04-14T03:15:31.670Z,0
2018-04-14T03:16:31.737Z,0
2018-04-14T03:17:31.446Z,0
2018-04-14T03:18:31.730Z,0
2018-04-14T03:19:31.484Z,0
2018-04-14T03:20:46.424Z,0
2018-04-14T03:21:46.187Z,0
2018-04-14T03:22:31.807Z,0
2018-04-14T03:23:46.505Z,0
2018-04-14T03:24:31.334Z,0
2018-04-14T03:25:31.870Z,0
2018-04-14T03:26:31.893Z,0
2018-04-14T03:27:31.650Z,0
2018-04-14T03:28:31.932Z,0
2018-04-14T03:29:46.090Z,0
2018-04-14T03:30:31.483Z,0
2018-04-14T03:31:31.492Z,0
2018-04-14T03:32:32.115Z,0
2018-04-14T03:33:32.035Z,0
2018-04-14T03:34:31.898Z,0
2018-04-14T03:35:31.818Z,0
2018-04-14T03:36:32.094Z,0
2018-04-14T03:37:46.774Z,0
2018-04-14T03:38:46.278Z,0
2018-04-14T03:39:32.161Z,0
2018-04-14T03:40:32.180Z,0
2018-04-14T03:41:31.942Z,0
2018-04-14T03:43:32.239Z,0
2018-04-14T03:44:32.007Z,0
2018-04-14T03:45:46.938Z,0
2018-04-14T03:46:46.452Z,0
2018-04-14T03:47:31.557Z,0
2018-04-14T03:48:46.496Z,0
2018-04-14T03:49:32.140Z,0
2018-04-14T03:50:32.386Z,0
2018-04-14T03:51:31.892Z,0
2018-04-14T03:52:47.093Z,0
2018-04-14T03:53:47.105Z,0
2018-04-14T03:54:32.228Z,0
2018-04-14T03:55:32.231Z,0
2018-04-14T03:56:32.512Z,0
2018-04-14T03:57:32.273Z,0
2018-04-14T03:58:32.294Z,0
2018-04-14T03:59:32.054Z,0
2018-04-14T04:00:32.609Z,0
2018-04-14T04:01:32.617Z,0
2018-04-14T04:02:32.634Z,0
2018-04-14T04:03:32.660Z,0
2018-04-14T04:04:32.158Z,0
2018-04-14T04:05:47.374Z,0
2018-04-14T04:06:47.378Z,0
2018-04-14T04:07:47.137Z,0
2018-04-14T04:08:32.505Z,0
2018-04-14T04:09:47.176Z,0
2018-04-14T04:10:32.287Z,0
2018-04-14T04:11:32.824Z,0
2018-04-14T04:12:32.842Z,0
2018-04-14T04:13:32.861Z,0
2018-04-14T04:14:32.892Z,0
2018-04-14T04:16:47.583Z,0
2018-04-14T04:17:32.945Z,0
2018-04-14T04:18:47.632Z,0
2018-04-14T04:19:32.993Z,0
2018-04-14T04:20:47.411Z,0
2018-04-14T04:21:33.036Z,0
2018-04-14T04:22:47.709Z,0
2018-04-14T04:23:33.076Z,0
2018-04-14T04:24:47.750Z,0
2018-04-14T04:25:47.508Z,0
2018-04-14T04:26:33.130Z,0
2018-04-14T04:27:32.634Z,0
2018-04-14T04:28:33.191Z,0
2018-04-14T04:29:32.674Z,0
2018-04-14T04:30:32.979Z,0
2018-04-14T04:31:32.721Z,0
2018-04-14T04:32:47.913Z,0
2018-04-14T04:33:33.275Z,0
2018-04-14T04:34:33.037Z,0
2018-04-14T04:35:33.319Z,0
2018-04-14T04:36:33.344Z,0
2018-04-14T04:37:33.101Z,0
2018-04-14T04:38:33.387Z,0
2018-04-14T04:39:33.139Z,0
2018-04-14T04:41:02.738Z,0
2018-04-14T04:41:33.472Z,0
2018-04-14T04:42:33.563Z,0
2018-04-14T04:43:33.483Z,0
2018-04-14T04:44:33.504Z,0
2018-04-14T04:45:33.263Z,0
2018-04-14T04:46:33.550Z,0
2018-04-14T04:47:48.224Z,0
2018-04-14T04:48:47.493Z,0
2018-04-14T04:49:48.264Z,0
2018-04-14T04:50:33.115Z,0
2018-04-14T04:51:33.649Z,0
2018-04-14T04:52:48.342Z,0
2018-04-14T04:53:33.690Z,0
2018-04-14T04:54:48.110Z,0
2018-04-14T04:55:48.387Z,0
2018-04-14T04:56:33.497Z,0
2018-04-14T04:57:33.772Z,0
2018-04-14T04:58:33.651Z,0
2018-04-14T04:59:33.294Z,0
2018-04-14T05:00:33.835Z,5
2018-04-14T05:01:33.598Z,5
2018-04-14T05:02:33.614Z,5
2018-04-14T05:03:33.895Z,5
2018-04-14T05:04:33.664Z,5
2018-04-14T05:05:48.337Z,5
2018-04-14T05:07:33.975Z,5
2018-04-14T05:08:33.484Z,5
2018-04-14T05:09:33.759Z,5
2018-04-14T05:10:48.697Z,5
2018-04-14T05:11:33.801Z,5
2018-04-14T05:12:48.478Z,5
2018-04-14T05:13:34.119Z,5
2018-04-14T05:14:33.602Z,5
2018-04-14T05:15:34.137Z,5
2018-04-14T05:16:34.169Z,10
2018-04-14T05:17:34.184Z,10
2018-04-14T05:18:34.205Z,10
2018-04-14T05:19:33.706Z,10
2018-04-14T05:20:48.911Z,10
2018-04-14T05:21:33.488Z,10
2018-04-14T05:22:34.284Z,10
2018-04-14T05:23:34.359Z,10
2018-04-14T05:24:33.809Z,10
2018-04-14T05:25:34.087Z,10
2018-04-14T05:26:34.118Z,10
2018-04-14T05:27:33.870Z,10
2018-04-14T05:29:03.725Z,10
2018-04-14T05:29:34.432Z,10
2018-04-14T05:30:34.197Z,10
2018-04-14T05:32:34.492Z,10
2018-04-14T05:33:48.650Z,10
2018-04-14T05:34:34.560Z,10
2018-04-14T05:35:34.598Z,10
2018-04-14T05:36:34.312Z,10
2018-04-14T05:37:34.779Z,10
2018-04-14T05:38:34.095Z,10
2018-04-14T05:39:34.371Z,15
2018-04-14T05:40:34.662Z,15
2018-04-14T05:41:49.335Z,10
2018-04-14T05:42:34.698Z,10
2018-04-14T05:43:34.714Z,10
2018-04-14T05:44:49.405Z,10
2018-04-14T05:45:34.758Z,10
2018-04-14T05:46:34.778Z,10
2018-04-14T05:47:34.544Z,10
2018-04-14T05:48:34.881Z,10
2018-04-14T05:49:34.840Z,10
2018-04-14T05:50:34.858Z,10
2018-04-14T05:51:34.624Z,10
2018-04-14T05:52:34.904Z,10
2018-04-14T05:53:34.666Z,10
2018-04-14T05:54:35.000Z,10
2018-04-14T05:55:34.708Z,5
2018-04-14T05:56:34.991Z,10
2018-04-14T05:57:35.018Z,10
2018-04-14T05:58:34.772Z,10
2018-04-14T05:59:34.271Z,15
2018-04-14T06:00:49.212Z,15
2018-04-14T06:01:35.087Z,15
2018-04-14T06:02:35.110Z,15
2018-04-14T06:03:49.528Z,20
2018-04-14T06:04:34.893Z,20
2018-04-14T06:05:34.917Z,25
2018-04-14T06:06:35.190Z,25
2018-04-14T06:07:34.694Z,30
2018-04-14T06:09:34.996Z,30
2018-04-14T06:10:35.283Z,35
2018-04-14T06:11:49.955Z,40
2018-04-14T06:12:35.054Z,45
2018-04-14T06:13:35.077Z,50
2018-04-14T06:14:35.194Z,55
2018-04-14T06:16:04.435Z,70
2018-04-14T06:16:35.144Z,75
2018-04-14T06:17:35.473Z,85
2018-04-14T06:18:35.445Z,85
2018-04-14T06:19:35.463Z,80
2018-04-14T06:20:35.274Z,85
2018-04-14T06:21:35.244Z,85
2018-04-14T06:22:35.264Z,95
2018-04-14T06:23:35.560Z,90
2018-04-14T06:24:34.787Z,75
2018-04-14T06:25:35.070Z,55
2018-04-14T06:26:35.091Z,55
2018-04-14T06:27:35.626Z,60
2018-04-14T06:28:35.392Z,70
2018-04-14T06:29:35.153Z,70
2018-04-14T06:30:35.697Z,75
2018-04-14T06:31:35.459Z,70
2018-04-14T06:32:35.803Z,70
2018-04-14T06:33:35.756Z,80
2018-04-14T06:34:35.518Z,70
2018-04-14T06:35:35.856Z,70
2018-04-14T06:36:35.299Z,65
2018-04-14T06:37:35.843Z,70
2018-04-14T06:38:35.602Z,75
2018-04-14T06:39:35.625Z,75
2018-04-14T06:41:35.925Z,65
2018-04-14T06:42:35.946Z,70
2018-04-14T06:43:35.707Z,70
2018-04-14T06:44:35.728Z,75
2018-04-14T06:45:50.670Z,70
2018-04-14T06:46:35.850Z,75
2018-04-14T06:47:50.710Z,80
2018-04-14T06:48:36.077Z,90
2018-04-14T06:49:35.840Z,105
2018-04-14T06:50:35.858Z,100
2018-04-14T06:51:35.880Z,110
2018-04-14T06:52:35.910Z,115
2018-04-14T06:53:50.844Z,125
2018-04-14T06:54:35.947Z,125
2018-04-14T06:55:50.960Z,130
2018-04-14T06:56:50.909Z,140
2018-04-14T06:57:36.012Z,140
2018-04-14T06:58:36.027Z,145
2018-04-14T06:59:36.307Z,160
2018-04-14T07:00:36.070Z,140
2018-04-14T07:01:50.760Z,140
2018-04-14T07:02:36.116Z,200
2018-04-14T07:04:05.711Z,275
2018-04-14T07:04:36.342Z,365
2018-04-14T07:05:36.442Z,295
2018-04-14T07:06:36.463Z,340
2018-04-14T07:07:36.486Z,330
2018-04-14T07:08:36.251Z,365
2018-04-14T07:09:36.013Z,310
2018-04-14T07:10:36.553Z,555
2018-04-14T07:11:36.589Z,610
2018-04-14T07:12:36.339Z,470
2018-04-14T07:13:36.628Z,615
2018-04-14T07:14:36.396Z,490
2018-04-14T07:15:36.663Z,385
2018-04-14T07:16:51.347Z,300
2018-04-14T07:17:36.466Z,485
2018-04-14T07:18:36.746Z,470
2018-04-14T07:19:51.419Z,470
2018-04-14T07:20:36.922Z,325
2018-04-14T07:21:36.820Z,350
2018-04-14T07:22:36.829Z,300
2018-04-14T07:23:51.252Z,350
2018-04-14T07:24:36.877Z,310
2018-04-14T07:25:36.656Z,300
2018-04-14T07:26:36.932Z,310
2018-04-14T07:27:36.444Z,530
2018-04-14T07:28:51.376Z,425
2018-04-14T07:29:51.664Z,665
2018-04-14T07:30:36.607Z,340
2018-04-14T07:31:36.807Z,200
2018-04-14T07:32:36.583Z,180
2018-04-14T07:33:51.756Z,275
2018-04-14T07:34:36.865Z,245
2018-04-14T07:36:06.470Z,195
2018-04-14T07:36:36.914Z,195
2018-04-14T07:37:37.068Z,245
2018-04-14T07:38:37.222Z,310
2018-04-14T07:39:37.254Z,285
2018-04-14T07:40:37.265Z,340
2018-04-14T07:41:37.035Z,220
2018-04-14T07:42:37.057Z,185
2018-04-14T07:43:37.083Z,160
2018-04-14T07:44:37.103Z,150
2018-04-14T07:45:37.134Z,145
2018-04-14T07:47:37.442Z,135
2018-04-14T07:48:37.218Z,140
2018-04-14T07:49:52.144Z,150
2018-04-14T07:51:06.828Z,200
2018-04-14T07:51:37.406Z,215
2018-04-14T07:52:37.565Z,275
2018-04-14T07:53:37.329Z,265
2018-04-14T07:54:37.089Z,225
2018-04-14T07:55:37.374Z,205
2018-04-14T07:57:52.389Z,250
2018-04-14T07:58:52.359Z,435
2018-04-14T07:59:37.729Z,485
2018-04-14T08:00:37.749Z,260
2018-04-14T08:01:37.785Z,195
2018-04-14T08:02:37.800Z,200
2018-04-14T08:03:37.560Z,180
2018-04-14T08:04:37.607Z,180
2018-04-14T08:05:52.529Z,205
2018-04-14T08:06:52.294Z,185
2018-04-14T08:07:37.916Z,175
2018-04-14T08:08:37.945Z,160
2018-04-14T08:09:37.963Z,145
2018-04-14T08:10:37.997Z,135
2018-04-14T08:11:37.561Z,135
2018-04-14T08:12:37.519Z,130
2018-04-14T08:13:52.722Z,110
2018-04-14T08:14:38.083Z,90
2018-04-14T08:15:37.596Z,75
2018-04-14T08:16:38.132Z,65
2018-04-14T08:17:37.898Z,60
2018-04-14T08:18:52.842Z,65
2018-04-14T08:19:38.319Z,65
2018-04-14T08:20:52.892Z,65
2018-04-14T08:21:37.742Z,60
2018-04-14T08:23:07.333Z,80
2018-04-14T08:23:37.785Z,85
2018-04-14T08:24:38.072Z,70
2018-04-14T08:25:38.341Z,60
2018-04-14T08:26:38.373Z,55
2018-04-14T08:27:38.139Z,60
2018-04-14T08:28:53.081Z,65
2018-04-14T08:29:53.101Z,60
2018-04-14T08:30:38.199Z,55
2018-04-14T08:31:38.224Z,55
2018-04-14T08:32:37.987Z,65
2018-04-14T08:33:38.273Z,70
2018-04-14T08:34:38.296Z,65
2018-04-14T08:35:38.372Z,85
2018-04-14T08:36:38.597Z,100
2018-04-14T08:38:53.046Z,125
2018-04-14T08:39:38.413Z,135
2018-04-14T08:40:38.174Z,150
2018-04-14T08:41:38.708Z,155
2018-04-14T08:42:38.740Z,235
2018-04-14T08:43:38.240Z,220
2018-04-14T08:44:38.786Z,195
2018-04-14T08:45:38.550Z,160
2018-04-14T08:46:38.826Z,165
2018-04-14T08:47:38.851Z,160
2018-04-14T08:49:38.636Z,170
2018-04-14T08:50:38.399Z,155
2018-04-14T08:51:38.951Z,135
2018-04-14T08:52:38.452Z,120
2018-04-14T08:53:38.994Z,120
2018-04-14T08:54:53.157Z,130
2018-04-14T08:55:53.438Z,115
2018-04-14T08:56:39.176Z,110
2018-04-14T08:57:38.568Z,110
2018-04-14T08:58:39.107Z,100
2018-04-14T08:59:39.124Z,100
2018-04-14T09:00:39.164Z,105
2018-04-14T09:01:38.923Z,110
2018-04-14T09:02:38.938Z,120
2018-04-14T09:03:39.224Z,110
2018-04-14T09:04:53.648Z,115
2018-04-14T09:05:39.268Z,155
2018-04-14T09:06:39.028Z,205
2018-04-14T09:07:39.054Z,225
2018-04-14T09:08:39.081Z,210
2018-04-14T09:09:39.355Z,190
2018-04-14T09:11:39.148Z,165
2018-04-14T09:12:39.172Z,155
2018-04-14T09:13:39.457Z,140
2018-04-14T09:14:39.220Z,140
2018-04-14T09:15:39.346Z,135
2018-04-14T09:16:39.275Z,110
2018-04-14T09:17:39.555Z,85
2018-04-14T09:18:39.321Z,70
2018-04-14T09:19:39.707Z,70
2018-04-14T09:20:39.361Z,85
2018-04-14T09:21:39.124Z,95
2018-04-14T09:22:39.159Z,100
2018-04-14T09:23:39.694Z,95
2018-04-14T09:24:39.458Z,80
2018-04-14T09:25:53.887Z,75
2018-04-14T09:26:39.588Z,80
2018-04-14T09:27:39.271Z,95
2018-04-14T09:28:39.556Z,110
2018-04-14T09:29:39.061Z,105
2018-04-14T09:30:39.600Z,115
2018-04-14T09:31:39.882Z,145
2018-04-14T09:32:54.617Z,145
2018-04-14T09:33:39.666Z,140
2018-04-14T09:35:54.373Z,150
2018-04-14T09:36:39.480Z,155
2018-04-14T09:37:40.029Z,155
2018-04-14T09:38:54.444Z,150
2018-04-14T09:39:39.547Z,145
2018-04-14T09:40:54.748Z,145
2018-04-14T09:41:39.859Z,145
2018-04-14T09:42:40.137Z,150
2018-04-14T09:43:39.906Z,160
2018-04-14T09:44:54.857Z,175
2018-04-14T09:45:40.220Z,190
2018-04-14T09:46:40.233Z,220
2018-04-14T09:47:40.262Z,275
2018-04-14T09:49:54.961Z,295
2018-04-14T09:50:39.807Z,235
2018-04-14T09:52:09.419Z,200
2018-04-14T09:52:40.116Z,200
2018-04-14T09:53:40.405Z,190
2018-04-14T09:55:39.926Z,145
2018-04-14T09:56:40.477Z,135
2018-04-14T09:57:55.153Z,140
2018-04-14T09:58:40.569Z,140
2018-04-14T09:59:40.549Z,135
2018-04-14T10:00:40.573Z,115
2018-04-14T10:01:40.608Z,115
2018-04-14T10:02:40.101Z,120
2018-04-14T10:03:55.040Z,120
2018-04-14T10:04:40.668Z,120
2018-04-14T10:05:40.435Z,115
2018-04-14T10:06:40.707Z,120
2018-04-14T10:07:40.734Z,125
2018-04-14T10:08:40.498Z,120
2018-04-14T10:09:40.521Z,125
2018-04-14T10:10:55.306Z,130
2018-04-14T10:11:40.579Z,140
2018-04-14T10:12:40.603Z,145
2018-04-14T10:14:09.939Z,135
2018-04-14T10:14:40.646Z,135
2018-04-14T10:15:55.327Z,130
2018-04-14T10:16:40.694Z,125
2018-04-14T10:17:40.976Z,120
2018-04-14T10:18:41.000Z,120
2018-04-14T10:19:41.023Z,120
2018-04-14T10:20:41.047Z,115
2018-04-14T10:22:40.846Z,135
2018-04-14T10:23:41.120Z,145
2018-04-14T10:24:55.805Z,155
2018-04-14T10:25:40.647Z,165
2018-04-14T10:26:41.198Z,170
2018-04-14T10:27:41.211Z,175
2018-04-14T10:28:55.897Z,180
2018-04-14T10:29:55.660Z,180
2018-04-14T10:30:41.027Z,175
2018-04-14T10:31:41.321Z,160
2018-04-14T10:32:40.820Z,145
2018-04-14T10:33:41.366Z,150
2018-04-14T10:34:56.042Z,140
2018-04-14T10:35:41.142Z,140
2018-04-14T10:36:56.088Z,140
2018-04-14T10:37:41.559Z,140
2018-04-14T10:38:41.219Z,140
2018-04-14T10:39:55.899Z,130
2018-04-14T10:40:41.529Z,130
2018-04-14T10:41:41.302Z,135
2018-04-14T10:42:41.583Z,140
2018-04-14T10:43:41.347Z,145
2018-04-14T10:44:41.102Z,150
2018-04-14T10:46:10.962Z,185
2018-04-14T10:46:56.325Z,190
2018-04-14T10:47:41.700Z,190
2018-04-14T10:48:41.748Z,190
2018-04-14T10:49:41.744Z,200
2018-04-14T10:50:41.760Z,195
2018-04-14T10:51:41.902Z,185
2018-04-14T10:52:56.480Z,220
2018-04-14T10:53:56.495Z,190
2018-04-14T10:54:41.865Z,175
2018-04-14T10:55:41.915Z,165
2018-04-14T10:56:41.652Z,155
2018-04-14T10:57:41.680Z,150
2018-04-14T10:58:41.696Z,150
2018-04-14T11:00:56.505Z,160
2018-04-14T11:01:42.034Z,165
2018-04-14T11:02:56.723Z,170
2018-04-14T11:03:41.302Z,170
2018-04-14T11:04:42.103Z,180
2018-04-14T11:05:41.902Z,185
2018-04-14T11:06:42.153Z,190
2018-04-14T11:07:41.920Z,210
2018-04-14T11:08:41.940Z,205
2018-04-14T11:09:41.967Z,195
2018-04-14T11:10:42.246Z,175
2018-04-14T11:11:42.022Z,160
2018-04-14T11:12:42.297Z,150
2018-04-14T11:13:42.333Z,145
2018-04-14T11:14:42.348Z,145
2018-04-14T11:15:56.783Z,165
2018-04-14T11:17:42.429Z,175
2018-04-14T11:18:42.453Z,195
2018-04-14T11:19:42.211Z,210
2018-04-14T11:20:41.823Z,215
2018-04-14T11:21:42.515Z,220
2018-04-14T11:22:42.563Z,230
2018-04-14T11:24:57.249Z,225
2018-04-14T11:25:42.356Z,215
2018-04-14T11:26:42.646Z,215
2018-04-14T11:27:42.702Z,210
2018-04-14T11:28:42.686Z,205
2018-04-14T11:29:42.752Z,195
2018-04-14T11:30:42.743Z,200
2018-04-14T11:31:42.513Z,190
2018-04-14T11:33:12.106Z,185
2018-04-14T11:33:42.813Z,180
2018-04-14T11:34:42.840Z,170
2018-04-14T11:35:42.626Z,150
2018-04-14T11:36:42.930Z,135
2018-04-14T11:37:42.659Z,120
2018-04-14T11:38:57.595Z,105
2018-04-14T11:39:42.702Z,105
2018-04-14T11:40:43.001Z,105
2018-04-14T11:41:43.009Z,120
2018-04-14T11:42:43.035Z,145
2018-04-14T11:43:42.810Z,170
2018-04-14T11:44:42.576Z,180
2018-04-14T11:45:42.852Z,175
2018-04-14T11:47:57.819Z,145
2018-04-14T11:49:12.504Z,140
2018-04-14T11:49:43.212Z,135
2018-04-14T11:50:57.649Z,130
2018-04-14T11:51:43.264Z,135
2018-04-14T11:52:43.280Z,135
2018-04-14T11:53:43.321Z,140
2018-04-14T11:54:43.070Z,150
2018-04-14T11:55:43.097Z,145
2018-04-14T11:57:43.242Z,140
2018-04-14T11:58:43.434Z,125
2018-04-14T11:59:43.199Z,115
2018-04-14T12:00:57.885Z,110
2018-04-14T12:01:58.168Z,110
2018-04-14T12:02:43.014Z,110
2018-04-14T12:03:43.176Z,100
2018-04-14T12:05:43.607Z,80
2018-04-14T12:06:43.627Z,70
2018-04-14T12:07:43.651Z,55
2018-04-14T12:08:43.425Z,55
2018-04-14T12:09:43.186Z,55
2018-04-14T12:10:43.729Z,45
2018-04-14T12:11:58.419Z,40
2018-04-14T12:12:43.778Z,35
2018-04-14T12:13:43.802Z,35
2018-04-14T12:14:43.833Z,35
2018-04-14T12:15:43.597Z,35
2018-04-14T12:16:43.624Z,30
2018-04-14T12:17:43.377Z,30
2018-04-14T12:18:58.579Z,30
2018-04-14T12:19:43.956Z,30
2018-04-14T12:21:13.288Z,25
2018-04-14T12:21:43.219Z,25
2018-04-14T12:22:44.200Z,25
2018-04-14T12:23:43.782Z,20
2018-04-14T12:24:43.806Z,20
2018-04-14T12:25:43.569Z,20
2018-04-14T12:26:43.863Z,20
2018-04-14T12:27:44.160Z,20
2018-04-14T12:28:43.645Z,25
2018-04-14T12:29:43.766Z,25
2018-04-14T12:31:44.234Z,30
2018-04-14T12:32:43.481Z,35
2018-04-14T12:33:44.020Z,35
2018-04-14T12:34:44.522Z,30
2018-04-14T12:36:13.646Z,25
2018-04-14T12:36:58.753Z,25
2018-04-14T12:37:44.379Z,20
2018-04-14T12:38:44.144Z,20
2018-04-14T12:40:44.188Z,25
2018-04-14T12:41:44.213Z,25
2018-04-14T12:42:43.454Z,30
2018-04-14T12:43:44.518Z,35
2018-04-14T12:44:44.276Z,40
2018-04-14T12:45:44.047Z,45
2018-04-14T12:47:44.088Z,55
2018-04-14T12:48:44.374Z,55
2018-04-14T12:49:44.391Z,60
2018-04-14T12:50:44.413Z,60
2018-04-14T12:52:44.201Z,65
2018-04-14T12:53:44.749Z,65
2018-04-14T12:54:44.770Z,70
2018-04-14T12:55:59.192Z,75
2018-04-14T12:56:44.553Z,80
2018-04-14T12:57:44.574Z,75
2018-04-14T12:58:44.596Z,70
2018-04-14T12:59:44.362Z,60
2018-04-14T13:00:59.569Z,55
2018-04-14T13:01:44.931Z,55
2018-04-14T13:02:44.702Z,50
2018-04-14T13:04:44.738Z,50
2018-04-14T13:05:44.800Z,50
2018-04-14T13:06:44.791Z,45
2018-04-14T13:07:59.726Z,40
2018-04-14T13:08:59.486Z,45
2018-04-14T13:09:45.211Z,50
2018-04-14T13:10:44.874Z,60
2018-04-14T13:11:45.158Z,75
2018-04-14T13:12:45.192Z,95
2018-04-14T13:13:45.208Z,115
2018-04-14T13:14:44.964Z,120
2018-04-14T13:15:45.264Z,130
2018-04-14T13:16:45.274Z,135
2018-04-14T13:18:45.324Z,115
2018-04-14T13:19:45.345Z,100
2018-04-14T13:20:45.128Z,90
2018-04-14T13:21:45.401Z,75
2018-04-14T13:22:44.895Z,65
2018-04-14T13:24:00.089Z,60
2018-04-14T13:24:59.868Z,60
2018-04-14T13:25:45.219Z,55
2018-04-14T13:26:45.248Z,55
2018-04-14T13:27:45.528Z,60
2018-04-14T13:28:45.294Z,65
2018-04-14T13:29:45.571Z,75
2018-04-14T13:30:45.336Z,85
2018-04-14T13:31:45.371Z,95
2018-04-14T13:32:45.169Z,110
2018-04-14T13:34:00.065Z,115
2018-04-14T13:35:00.352Z,115
2018-04-14T13:35:45.720Z,115
2018-04-14T13:37:00.396Z,120
2018-04-14T13:37:45.827Z,120
2018-04-14T13:38:45.536Z,125
2018-04-14T13:40:00.468Z,150
2018-04-14T13:40:45.569Z,155
2018-04-14T13:41:45.594Z,135
2018-04-14T13:42:45.883Z,145
2018-04-14T13:43:45.643Z,130
2018-04-14T13:44:45.928Z,165
2018-04-14T13:45:45.952Z,165
2018-04-14T13:47:00.628Z,135
2018-04-14T13:47:46.007Z,140
2018-04-14T13:48:46.018Z,130
2018-04-14T13:49:45.789Z,160
2018-04-14T13:50:46.066Z,160
2018-04-14T13:52:45.595Z,150
2018-04-14T13:53:45.886Z,150
2018-04-14T13:56:00.584Z,145
2018-04-14T13:57:00.864Z,145
2018-04-14T13:57:46.238Z,145
2018-04-14T13:59:00.655Z,150
2018-04-14T13:59:46.018Z,150
2018-04-14T14:00:46.308Z,145
2018-04-14T14:01:46.070Z,145
2018-04-14T14:02:46.188Z,145
2018-04-14T14:03:46.372Z,145
2018-04-14T14:04:46.398Z,145
2018-04-14T14:05:46.426Z,150
2018-04-14T14:06:46.292Z,145
2018-04-14T14:07:46.473Z,140
2018-04-14T14:08:46.509Z,145
2018-04-14T14:10:01.176Z,140
2018-04-14T14:11:01.328Z,140
2018-04-14T14:11:46.563Z,140
2018-04-14T14:12:46.335Z,140
2018-04-14T14:13:46.609Z,140
2018-04-14T14:14:46.640Z,140
2018-04-14T14:16:01.329Z,140
2018-04-14T14:16:46.428Z,135
2018-04-14T14:17:46.191Z,135
2018-04-14T14:18:46.734Z,140
2018-04-14T14:20:01.157Z,135
2018-04-14T14:20:46.793Z,135
2018-04-14T14:21:46.543Z,135
2018-04-14T14:23:01.488Z,135
2018-04-14T14:23:46.851Z,135
2018-04-14T14:25:01.745Z,135
2018-04-14T14:25:46.898Z,135
2018-04-14T14:27:01.324Z,130
2018-04-14T14:27:46.947Z,130
2018-04-14T14:29:01.110Z,130
2018-04-14T14:29:46.478Z,135
2018-04-14T14:30:46.237Z,135
2018-04-14T14:31:46.534Z,135
2018-04-14T14:32:47.062Z,130
2018-04-14T14:33:47.160Z,130
2018-04-14T14:34:47.107Z,135
2018-04-14T14:35:47.150Z,135
2018-04-14T14:36:46.900Z,130
2018-04-14T14:37:47.193Z,130
2018-04-14T14:38:47.216Z,130
2018-04-14T14:39:46.968Z,130
2018-04-14T14:41:01.914Z,130
2018-04-14T14:41:47.024Z,130
2018-04-14T14:43:01.783Z,130
2018-04-14T14:43:46.807Z,130
2018-04-14T14:45:47.373Z,125
2018-04-14T14:46:47.141Z,130
2018-04-14T14:48:02.123Z,125
2018-04-14T14:48:47.656Z,125
2018-04-14T14:49:47.519Z,125
2018-04-14T14:50:47.499Z,115
2018-04-14T14:51:47.519Z,95
2018-04-14T14:52:47.541Z,115
2018-04-14T14:53:47.568Z,120
2018-04-14T14:55:02.253Z,125
2018-04-14T14:55:47.623Z,125
2018-04-14T14:56:47.799Z,125
2018-04-14T14:57:47.664Z,125